Terminal Aerodrome Forecast
Issued by NWS

Home | Current Version | Previous Version | Graphics & Text | Print | Product List | Glossary On
Versions: 1 2 3 4 5 6 7 8 9 10 11 12 13 14 15 16 17 18 19 20
000
FTUS43 KMPX 031131
TAFRNH
TAF
KRNH 031131Z 0312/0412 10003KT 3SM BR OVC003
      TEMPO 0313/0315 6SM BR SCT003
     FM031500 13006KT P6SM FEW008 SCT015
     FM031800 13008KT P6SM SCT025
     FM040800 12006KT 4SM BR SCT004=

USA.gov is the U.S. government's official web portal to all federal, state and local government web resources and services.